Briefing drone pour Bourg-achard

Rechercher une autre localisation

Conditions de vol :


Nous sommes le : Mardi 13 avril 2021
Il est 11:20 UTC (13:20 LT)

Lever de soleil : 04:41 UTC (06:41 LT)
Coucher de soleil : 19:12 UTC (21:12 LT)

Météo

L'essentiel des conditions de vol

VIGILANCE MÉTÉO FRANCE - Eure (27)
Pas de vigilances particulieres
CARTES DES FRONTS
METAR de LFOP
LFOP 131100Z AUTO 10008KT 060V190 9999 FEW046 09/M02 Q1033 NOSIG

Date d'émission: 13/04/2021
Heure d'émission: 11:00 UTC
Vent: 100° (variable du 060° au 190°) pour 8 KT (15 km/h)
Visibilité horizontale: > 10 km
Plafond :
- Peu de nuages à 4600ft (1402m)
Température: 9 °C
Point de rosée: -2 °C
Humidité: 46%
Pression (QNH): 1033 hPa
Conditions: Pas de changement dans les 2 heures (NOSIG)
TAF de LFOP
LFOP 131100Z 1312/1412 05007KT 9999 SCT040

Conditions prévues :

Heure d'émission : Bulletin éffectué le 13 à 12:00 UTC
Prévision : Valide du 13 a 12:00 UTC au 14 a 12:00 UTC
Vent : 50° pour 7 KT (13 km/h)
Visibilité : > 10 km
Nuages : Nuages eparts à 4000ft (1219 m)
WEBCAM POUR BOURG-ACHARD

Réglementation

Voler en sécurité

CARTES AERONAUTIQUE 1/500.000
CARTES VAC (LFOP)
SUP AIP




Chargement des AIP...
NOTAM (BOURG-ACHARD + Terrain à proximité / FIR )




Chargement des NOTAMS...
CONTACT PREFECTURE 27


Avertissement : Les données mises à disposition sont indicatives. Oxygène Drone ne pourra être tenu responsable de dégâts causés aux biens et aux personnes.